createdAt,value
2022-11-04T00:01:05.713Z,7.19
2022-11-04T00:03:34.048Z,7.28
2022-11-04T00:06:02.106Z,7.30
2022-11-04T00:08:30.387Z,7.25
2022-11-04T00:11:19.044Z,7.17
2022-11-04T00:13:48.592Z,7.23
2022-11-04T00:16:34.729Z,7.22
2022-11-04T00:19:02.809Z,7.21
2022-11-04T00:21:49.133Z,7.20
2022-11-04T00:24:35.234Z,7.21
2022-11-04T00:27:21.160Z,7.24
2022-11-04T00:29:48.777Z,7.20
2022-11-04T00:32:34.882Z,7.22
2022-11-04T00:35:02.565Z,7.21
2022-11-04T00:37:30.520Z,7.23
2022-11-04T00:40:01.777Z,7.22
2022-11-04T00:42:30.255Z,7.18
2022-11-04T00:44:57.983Z,7.19
2022-11-04T00:47:26.113Z,7.22
2022-11-04T00:49:53.848Z,7.19
2022-11-04T00:52:22.318Z,7.20
2022-11-04T00:54:50.040Z,7.20
2022-11-04T00:57:18.147Z,7.23
2022-11-04T00:59:46.102Z,7.21
2022-11-04T01:02:14.154Z,7.20
2022-11-04T01:04:42.045Z,7.22
2022-11-04T01:07:09.688Z,7.27
2022-11-04T01:09:37.405Z,7.32
2022-11-04T01:12:05.265Z,7.35
2022-11-04T01:14:33.008Z,7.35
2022-11-04T01:17:01.912Z,7.38
2022-11-04T01:19:30.232Z,7.39
2022-11-04T01:21:58.153Z,7.39
2022-11-04T01:24:26.322Z,7.41
2022-11-04T01:26:54.357Z,7.46
2022-11-04T01:29:22.054Z,7.50
2022-11-04T01:31:51.388Z,7.53
2022-11-04T01:34:19.051Z,7.49
2022-11-04T01:36:48.007Z,7.46
2022-11-04T01:39:15.706Z,7.43
2022-11-04T01:41:43.419Z,7.34
2022-11-04T01:44:42.984Z,7.31
2022-11-04T01:47:38.567Z,7.29
2022-11-04T01:50:23.438Z,7.25
2022-11-04T01:52:59.705Z,7.19
2022-11-04T01:55:29.248Z,7.16
2022-11-04T01:58:00.194Z,7.18
2022-11-04T02:00:27.797Z,7.23
2022-11-04T02:03:24.928Z,7.21
2022-11-04T02:05:53.028Z,7.19
2022-11-04T02:08:21.348Z,7.15
2022-11-04T02:10:58.404Z,7.16
2022-11-04T02:13:27.624Z,7.11
2022-11-04T02:16:11.338Z,7.09
2022-11-04T02:18:52.443Z,7.12
2022-11-04T02:21:45.603Z,7.17
2022-11-04T02:24:16.103Z,7.11
2022-11-04T02:26:48.031Z,7.03
2022-11-04T02:29:34.727Z,7.08
2022-11-04T02:32:50.041Z,7.13
2022-11-04T02:35:27.098Z,7.17
2022-11-04T02:37:54.805Z,7.21
2022-11-04T02:40:25.672Z,7.18
2022-11-04T02:43:12.872Z,7.12
2022-11-04T02:45:47.307Z,7.09
2022-11-04T02:48:24.460Z,7.07
2022-11-04T02:51:00.299Z,7.09
2022-11-04T02:53:31.840Z,7.08
2022-11-04T02:55:59.616Z,7.09
2022-11-04T02:58:38.310Z,7.07
2022-11-04T03:01:06.095Z,7.08
2022-11-04T03:03:41.625Z,7.04
2022-11-04T03:06:10.507Z,7.00
2022-11-04T03:08:41.376Z,6.97
2022-11-04T03:11:12.515Z,6.90
2022-11-04T03:13:44.721Z,6.92
2022-11-04T03:16:15.937Z,6.86
2022-11-04T03:19:01.800Z,6.78
2022-11-04T03:21:31.643Z,6.73
2022-11-04T03:23:59.488Z,6.77
2022-11-04T03:26:37.513Z,6.82
2022-11-04T03:29:23.545Z,6.82
2022-11-04T03:32:01.000Z,6.86
2022-11-04T03:34:28.909Z,6.88
2022-11-04T03:36:56.899Z,6.88
2022-11-04T03:39:27.825Z,6.91
2022-11-04T03:42:00.534Z,6.91
2022-11-04T03:44:29.713Z,6.89
2022-11-04T03:46:57.750Z,6.88
2022-11-04T03:49:25.948Z,6.90
2022-11-04T03:51:53.910Z,6.87
2022-11-04T03:54:21.723Z,6.85
2022-11-04T03:57:05.106Z,6.77
2022-11-04T03:59:48.250Z,6.81
2022-11-04T04:02:23.603Z,6.80
2022-11-04T04:05:01.139Z,6.79
2022-11-04T04:07:40.576Z,6.78
2022-11-04T04:10:33.698Z,6.74
2022-11-04T04:13:02.626Z,6.76
2022-11-04T04:15:37.209Z,6.76
2022-11-04T04:18:08.292Z,6.74
2022-11-04T04:20:36.807Z,6.72
2022-11-04T04:23:49.740Z,6.70
2022-11-04T04:26:36.458Z,6.70
2022-11-04T04:29:05.035Z,6.67
2022-11-04T04:31:51.645Z,6.61
2022-11-04T04:34:30.742Z,6.64
2022-11-04T04:37:16.613Z,6.59
2022-11-04T04:40:14.382Z,6.66
2022-11-04T04:43:00.845Z,6.63
2022-11-04T04:45:33.628Z,6.65
2022-11-04T04:48:01.293Z,6.59
2022-11-04T04:50:31.942Z,6.59
2022-11-04T04:52:59.661Z,6.67
2022-11-04T04:55:27.215Z,6.57
2022-11-04T04:57:55.253Z,6.57
2022-11-04T05:00:23.307Z,6.61
2022-11-04T05:02:51.630Z,6.62
2022-11-04T05:05:19.476Z,6.58
2022-11-04T05:07:47.873Z,6.55
2022-11-04T05:10:16.281Z,6.56
2022-11-04T05:13:03.218Z,6.68
2022-11-04T05:15:31.294Z,6.68
2022-11-04T05:18:00.217Z,6.63
2022-11-04T05:20:29.166Z,6.65
2022-11-04T05:22:58.359Z,6.71
2022-11-04T05:25:26.144Z,6.66
2022-11-04T05:27:53.765Z,6.75
2022-11-04T05:30:21.732Z,6.74
2022-11-04T05:32:49.502Z,6.70
2022-11-04T05:35:17.666Z,6.80
2022-11-04T05:37:45.476Z,6.78
2022-11-04T05:40:13.316Z,6.81
2022-11-04T05:42:41.129Z,6.83
2022-11-04T05:45:09.301Z,6.87
2022-11-04T05:47:37.143Z,6.92
2022-11-04T05:50:06.511Z,7.04
2022-11-04T05:52:34.469Z,6.97
2022-11-04T05:55:03.085Z,6.97
2022-11-04T05:57:31.032Z,7.08
2022-11-04T05:59:59.056Z,7.19
2022-11-04T06:02:27.000Z,7.26
2022-11-04T06:04:54.847Z,7.29
2022-11-04T06:07:22.454Z,7.35
2022-11-04T06:09:50.033Z,7.44
2022-11-04T06:12:17.720Z,7.33
2022-11-04T06:14:48.090Z,7.47
2022-11-04T06:17:17.058Z,7.53
2022-11-04T06:19:45.092Z,7.67
2022-11-04T06:22:15.511Z,7.74
2022-11-04T06:24:43.893Z,7.73
2022-11-04T06:27:12.190Z,7.93
2022-11-04T06:29:41.365Z,7.93
2022-11-04T06:32:13.871Z,8.00
2022-11-04T06:34:41.786Z,7.99
2022-11-04T06:37:10.072Z,8.14
2022-11-04T06:39:38.434Z,8.20
2022-11-04T06:42:06.202Z,8.42
2022-11-04T06:44:35.209Z,8.47
2022-11-04T06:47:03.839Z,8.49
2022-11-04T06:49:32.487Z,8.43
2022-11-04T06:52:02.658Z,8.60
2022-11-04T06:54:30.650Z,8.64
2022-11-04T06:56:58.663Z,8.63
2022-11-04T06:59:26.916Z,8.71
2022-11-04T07:01:54.980Z,8.80
2022-11-04T07:04:23.552Z,9.07
2022-11-04T07:06:51.520Z,9.23
2022-11-04T07:09:22.369Z,9.32
2022-11-04T07:11:51.272Z,9.28
2022-11-04T07:14:19.298Z,9.38
2022-11-04T07:16:50.425Z,9.50
2022-11-04T07:19:18.210Z,9.58
2022-11-04T07:21:45.965Z,9.66
2022-11-04T07:24:13.885Z,9.64
2022-11-04T07:26:43.363Z,9.79
2022-11-04T07:29:11.392Z,9.80
2022-11-04T07:31:39.121Z,9.71
2022-11-04T07:34:07.043Z,9.80
2022-11-04T07:36:34.793Z,9.93
2022-11-04T07:39:02.705Z,9.92
2022-11-04T07:41:30.462Z,10.13
2022-11-04T07:43:59.312Z,10.18
2022-11-04T07:46:27.111Z,10.24
2022-11-04T07:48:58.317Z,10.16
2022-11-04T07:51:26.488Z,10.11
2022-11-04T07:53:55.681Z,9.85
2022-11-04T07:56:24.278Z,9.47
2022-11-04T07:58:52.748Z,9.33
2022-11-04T08:01:23.556Z,9.27
2022-11-04T08:03:51.681Z,9.23
2022-11-04T08:06:20.396Z,9.01
2022-11-04T08:08:48.966Z,9.09
2022-11-04T08:11:19.246Z,9.20
2022-11-04T08:13:47.287Z,9.16
2022-11-04T08:16:19.904Z,9.17
2022-11-04T08:18:50.426Z,9.07
2022-11-04T08:21:18.011Z,8.91
2022-11-04T08:23:51.600Z,8.84
2022-11-04T08:26:19.740Z,8.68
2022-11-04T08:28:47.881Z,8.67
2022-11-04T08:31:24.090Z,8.65
2022-11-04T08:33:52.492Z,8.73
2022-11-04T08:36:21.034Z,8.69
2022-11-04T08:38:48.918Z,8.41
2022-11-04T08:41:19.684Z,8.69
2022-11-04T08:43:47.702Z,8.90
2022-11-04T08:46:15.419Z,9.09
2022-11-04T08:48:43.449Z,9.16
2022-11-04T08:51:14.766Z,9.27
2022-11-04T08:53:43.649Z,9.15
2022-11-04T08:56:23.604Z,9.33
2022-11-04T08:58:51.524Z,9.38
2022-11-04T09:01:19.365Z,9.14
2022-11-04T09:03:47.063Z,9.25
2022-11-04T09:06:28.766Z,9.26
2022-11-04T09:08:58.527Z,9.40
2022-11-04T09:11:26.091Z,9.37
2022-11-04T09:13:53.690Z,9.70
2022-11-04T09:16:21.300Z,9.66
2022-11-04T09:19:09.047Z,9.79
2022-11-04T09:21:37.277Z,9.61
2022-11-04T09:24:06.219Z,9.92
2022-11-04T09:26:36.168Z,9.85
2022-11-04T09:29:04.187Z,9.85
2022-11-04T09:31:32.333Z,9.95
2022-11-04T09:34:00.060Z,10.09
2022-11-04T09:36:29.321Z,10.22
2022-11-04T09:38:57.332Z,10.26
2022-11-04T09:41:35.656Z,10.33
2022-11-04T09:44:29.307Z,10.22
2022-11-04T09:46:59.129Z,10.30
2022-11-04T09:49:28.314Z,10.33
2022-11-04T09:51:56.439Z,10.29
2022-11-04T09:54:33.695Z,10.43
2022-11-04T09:57:01.698Z,10.69
2022-11-04T09:59:32.037Z,10.59
2022-11-04T10:02:05.642Z,10.88
2022-11-04T10:04:48.672Z,10.96
2022-11-04T10:07:16.823Z,10.84
2022-11-04T10:09:50.739Z,10.92
2022-11-04T10:12:43.370Z,10.92
2022-11-04T10:15:38.669Z,10.99
2022-11-04T10:18:24.829Z,10.93
2022-11-04T10:21:24.000Z,10.75
2022-11-04T10:24:08.527Z,10.84
2022-11-04T10:27:00.613Z,10.97
2022-11-04T10:29:36.152Z,11.03
2022-11-04T10:32:11.051Z,10.99
2022-11-04T10:34:43.178Z,10.94
2022-11-04T10:37:12.117Z,10.87
2022-11-04T10:39:45.837Z,10.98
2022-11-04T10:42:16.498Z,10.96
2022-11-04T10:44:44.284Z,11.16
2022-11-04T10:48:01.285Z,11.28
2022-11-04T10:50:37.723Z,11.15
2022-11-04T10:53:25.307Z,11.05
2022-11-04T10:56:12.301Z,11.11
2022-11-04T10:58:46.316Z,11.16
2022-11-04T11:01:29.237Z,11.48
2022-11-04T11:03:57.304Z,11.67
2022-11-04T11:06:27.433Z,11.77
2022-11-04T11:08:59.289Z,11.72
2022-11-04T13:49:33.792Z,10.70
2022-11-04T13:52:09.435Z,10.68
2022-11-04T13:54:44.410Z,10.69
2022-11-04T13:57:14.792Z,10.59
2022-11-04T13:59:44.337Z,10.56
2022-11-04T14:02:12.229Z,10.54
2022-11-04T14:04:43.097Z,10.55
2022-11-04T14:07:17.973Z,10.51
2022-11-04T14:09:53.722Z,10.48
2022-11-04T14:12:39.484Z,10.43
2022-11-04T14:15:13.537Z,10.45
2022-11-04T14:17:42.085Z,10.38
2022-11-04T14:20:11.947Z,10.32
2022-11-04T14:23:00.155Z,10.27
2022-11-04T14:25:41.370Z,10.17
2022-11-04T14:28:14.814Z,10.03
2022-11-04T14:30:45.396Z,10.06
2022-11-04T14:33:33.512Z,10.07
2022-11-04T14:36:27.713Z,10.03
2022-11-04T14:39:10.345Z,10.01
2022-11-04T14:41:40.892Z,10.00
2022-11-04T14:44:26.573Z,9.97
2022-11-04T14:46:57.778Z,9.96
2022-11-04T14:49:47.335Z,9.95
2022-11-04T14:52:27.892Z,9.91
2022-11-04T14:55:04.057Z,9.88
2022-11-04T14:57:39.869Z,9.85
2022-11-04T15:00:44.931Z,9.81
2022-11-04T15:04:08.835Z,9.78
2022-11-04T15:06:10.225Z,9.73
2022-11-04T15:08:41.153Z,9.69
2022-11-04T15:11:12.557Z,9.68
2022-11-04T15:13:47.625Z,9.64
2022-11-04T15:16:22.938Z,9.61
2022-11-04T15:18:50.841Z,9.53
2022-11-04T15:21:19.252Z,9.54
2022-11-04T15:23:54.695Z,9.48
2022-11-04T15:26:30.700Z,9.39
2022-11-04T15:29:00.168Z,9.38
2022-11-04T15:31:29.217Z,9.33
2022-11-04T15:33:58.991Z,9.34
2022-11-04T15:36:32.022Z,9.32
2022-11-04T15:39:03.593Z,9.30
2022-11-04T15:41:52.861Z,9.33
2022-11-04T15:44:27.564Z,9.31
2022-11-04T15:46:59.931Z,9.34
2022-11-04T15:49:32.307Z,9.29
2022-11-04T15:52:30.413Z,9.44
2022-11-04T15:54:59.194Z,9.46
2022-11-04T15:57:34.512Z,9.50
2022-11-04T16:00:09.694Z,9.50
2022-11-04T16:02:45.994Z,9.53
2022-11-04T16:05:16.664Z,9.49
2022-11-04T16:07:45.297Z,9.48
2022-11-04T16:10:33.247Z,9.48
2022-11-04T16:13:22.510Z,9.53
2022-11-04T16:15:52.200Z,9.53
2022-11-04T16:18:50.224Z,9.59
2022-11-04T16:21:23.911Z,9.62
2022-11-04T16:23:57.274Z,9.64
2022-11-04T16:26:26.486Z,9.69
2022-11-04T16:28:55.540Z,9.69
2022-11-04T16:31:23.160Z,9.72
2022-11-04T16:33:51.332Z,9.72
2022-11-04T16:36:23.854Z,9.75
2022-11-04T16:39:00.041Z,9.79
2022-11-04T16:41:28.487Z,9.82
2022-11-04T16:43:56.322Z,9.75
2022-11-04T16:46:23.988Z,9.80
2022-11-04T16:48:51.753Z,9.76
2022-11-04T16:51:20.903Z,9.79
2022-11-04T16:53:51.963Z,9.82
2022-11-04T16:56:22.280Z,9.82
2022-11-04T16:58:50.777Z,9.86
2022-11-04T17:01:19.482Z,9.88
2022-11-04T17:03:47.199Z,9.87
2022-11-04T17:06:15.039Z,9.88
2022-11-04T17:08:42.786Z,9.85
2022-11-04T17:11:10.750Z,9.85
2022-11-04T17:13:38.680Z,9.89
2022-11-04T17:16:07.724Z,9.84
2022-11-04T17:18:35.608Z,9.86
2022-11-04T17:21:06.632Z,9.86
2022-11-04T17:23:34.260Z,9.81
2022-11-04T17:26:02.095Z,9.77
2022-11-04T17:28:31.667Z,9.82
2022-11-04T17:31:00.639Z,9.79
2022-11-04T17:33:28.265Z,9.79
2022-11-04T17:35:56.077Z,9.74
2022-11-04T17:38:23.696Z,9.73
2022-11-04T17:41:10.737Z,9.68
2022-11-04T17:43:57.041Z,9.57
2022-11-04T17:46:41.964Z,9.52
2022-11-04T17:49:13.285Z,9.42
2022-11-04T17:51:41.467Z,9.29
2022-11-04T17:54:09.625Z,9.30
2022-11-04T17:56:38.840Z,9.32
2022-11-04T17:59:06.702Z,9.28
2022-11-04T18:01:35.128Z,9.25
2022-11-04T18:04:02.892Z,9.25
2022-11-04T18:06:31.891Z,9.21
2022-11-04T18:09:00.003Z,9.25
2022-11-04T18:11:46.941Z,9.29
2022-11-04T18:14:17.009Z,9.25
2022-11-04T18:16:48.983Z,9.26
2022-11-04T18:19:18.392Z,9.26
2022-11-04T18:21:47.407Z,9.22
2022-11-04T18:24:15.215Z,9.26
2022-11-04T18:26:43.010Z,9.29
2022-11-04T18:29:10.742Z,9.30
2022-11-04T18:31:43.226Z,9.33
2022-11-04T18:34:14.497Z,9.36
2022-11-04T18:36:42.578Z,9.36
2022-11-04T18:39:12.955Z,9.36
2022-11-04T18:41:41.494Z,9.29
2022-11-04T18:44:18.395Z,9.36
2022-11-04T18:46:46.294Z,9.40
2022-11-04T18:49:14.656Z,9.43
2022-11-04T18:51:42.614Z,9.50
2022-11-04T18:54:10.679Z,9.50
2022-11-04T18:56:38.237Z,9.54
2022-11-04T18:59:11.548Z,9.59
2022-11-04T19:01:39.514Z,9.59
2022-11-04T19:04:07.480Z,9.63
2022-11-04T19:06:39.480Z,9.56
2022-11-04T19:09:40.134Z,9.60
2022-11-04T19:12:29.212Z,9.69
2022-11-04T19:14:57.035Z,9.62
2022-11-04T19:17:25.351Z,9.62
2022-11-04T19:19:52.972Z,9.65
2022-11-04T19:22:20.627Z,9.64
2022-11-04T19:24:48.250Z,9.70
2022-11-04T19:27:18.067Z,9.73
2022-11-04T19:29:45.707Z,9.75
2022-11-04T19:32:14.576Z,9.76
2022-11-04T19:34:42.862Z,9.74
2022-11-04T19:37:10.960Z,9.72
2022-11-04T19:39:39.185Z,9.75
2022-11-04T19:42:25.277Z,9.72
2022-11-04T19:44:52.910Z,9.65
2022-11-04T19:47:20.598Z,9.71
2022-11-04T19:49:48.280Z,9.63
2022-11-04T19:52:16.246Z,9.56
2022-11-04T19:54:43.913Z,9.65
2022-11-04T19:57:11.852Z,9.67
2022-11-04T19:59:39.459Z,9.64
2022-11-04T20:02:07.321Z,9.55
2022-11-04T20:04:35.110Z,9.59
2022-11-04T20:07:02.791Z,9.53
2022-11-04T20:09:30.396Z,9.52
2022-11-04T20:12:16.371Z,9.54
2022-11-04T20:14:47.666Z,9.51
2022-11-04T20:17:15.586Z,9.54
2022-11-04T20:19:43.127Z,9.54
2022-11-04T20:22:10.801Z,9.52
2022-11-04T20:24:38.296Z,9.52
2022-11-04T20:27:06.405Z,9.53
2022-11-04T20:29:34.038Z,9.44
2022-11-04T20:32:01.607Z,9.37
2022-11-04T20:34:32.973Z,9.34
2022-11-04T20:37:00.854Z,9.35
2022-11-04T20:39:28.574Z,9.32
2022-11-04T20:41:56.213Z,9.27
2022-11-04T20:44:23.784Z,9.22
2022-11-04T20:46:51.591Z,9.29
2022-11-04T20:49:19.293Z,9.25
2022-11-04T20:51:54.892Z,9.25
2022-11-04T20:54:23.402Z,9.16
2022-11-04T20:56:50.957Z,9.14
2022-11-04T20:59:18.587Z,9.09
2022-11-04T21:01:47.470Z,9.04
2022-11-04T21:04:18.991Z,9.12
2022-11-04T21:06:50.034Z,9.08
2022-11-04T21:09:19.371Z,9.09
2022-11-04T21:11:52.984Z,9.01
2022-11-04T21:14:23.319Z,8.99
2022-11-04T21:16:53.243Z,9.05
2022-11-04T21:19:22.120Z,8.97
2022-11-04T21:21:49.900Z,9.07
2022-11-04T21:24:17.690Z,9.07
2022-11-04T21:26:46.813Z,9.08
2022-11-04T21:29:16.808Z,9.09
2022-11-04T21:31:44.738Z,9.10
2022-11-04T21:34:12.529Z,9.09
2022-11-04T21:36:40.381Z,9.11
2022-11-04T21:39:11.193Z,9.04
2022-11-04T21:41:39.239Z,8.99
2022-11-04T21:44:08.566Z,9.05
2022-11-04T21:46:38.245Z,8.97
2022-11-04T21:49:05.916Z,8.97
2022-11-04T21:51:34.407Z,8.97
2022-11-04T21:54:05.081Z,8.95
2022-11-04T21:56:33.620Z,8.94
2022-11-04T21:59:01.170Z,8.99
2022-11-04T22:01:29.898Z,8.97
2022-11-04T22:04:01.935Z,8.94
2022-11-04T22:06:34.815Z,8.82
2022-11-04T22:09:04.377Z,8.92
2022-11-04T22:11:32.629Z,8.89
2022-11-04T22:14:04.804Z,8.85
2022-11-04T22:16:33.934Z,8.85
2022-11-04T22:19:05.932Z,8.82
2022-11-04T22:21:33.992Z,8.78
2022-11-04T22:24:02.260Z,8.75
2022-11-04T22:26:31.399Z,8.84
2022-11-04T22:28:59.235Z,8.79
2022-11-04T22:31:31.050Z,8.86
2022-11-04T22:33:58.818Z,8.81
2022-11-04T22:36:26.683Z,8.79
2022-11-04T22:38:54.688Z,8.81
2022-11-04T22:41:24.271Z,8.84
2022-11-04T22:43:51.847Z,8.79
2022-11-04T22:46:21.856Z,8.81
2022-11-04T22:48:51.800Z,8.83
2022-11-04T22:51:19.916Z,8.81
2022-11-04T22:53:56.626Z,8.78
2022-11-04T22:56:26.447Z,8.77
2022-11-04T22:58:54.635Z,8.79
2022-11-04T23:01:22.597Z,8.79
2022-11-04T23:03:51.462Z,8.77
2022-11-04T23:06:19.471Z,8.73
2022-11-04T23:08:47.132Z,8.73
2022-11-04T23:11:38.882Z,8.76
2022-11-04T23:14:24.947Z,8.77
2022-11-04T23:17:11.157Z,8.78
2022-11-04T23:19:40.286Z,8.78
2022-11-04T23:22:26.571Z,8.76
2022-11-04T23:25:05.944Z,8.73
2022-11-04T23:27:59.321Z,8.80
2022-11-04T23:30:27.135Z,8.77
2022-11-04T23:32:56.462Z,8.70
2022-11-04T23:35:44.588Z,8.68
2022-11-04T23:38:12.327Z,8.69
2022-11-04T23:40:40.082Z,8.74
2022-11-04T23:43:08.020Z,8.70
2022-11-04T23:45:55.186Z,8.73
2022-11-04T23:48:41.381Z,8.75
2022-11-04T23:51:27.942Z,8.76
2022-11-04T23:54:13.983Z,8.73
2022-11-04T23:57:00.122Z,8.75
2022-11-04T23:59:46.190Z,8.75
